sensor_id;sensor_type;location;lat;lon;timestamp;temperature;humidity
9542;DHT22;4809;48.224;8.572;2023-05-14T00:00:19;9.50;99.90
9542;DHT22;4809;48.224;8.572;2023-05-14T00:02:45;9.50;99.90
9542;DHT22;4809;48.224;8.572;2023-05-14T00:05:10;9.60;99.90
9542;DHT22;4809;48.224;8.572;2023-05-14T00:07:36;9.60;99.90
9542;DHT22;4809;48.224;8.572;2023-05-14T00:10:01;9.60;99.90
9542;DHT22;4809;48.224;8.572;2023-05-14T00:12:27;9.70;99.90
9542;DHT22;4809;48.224;8.572;2023-05-14T00:14:54;9.70;99.90
9542;DHT22;4809;48.224;8.572;2023-05-14T00:17:20;9.70;99.90
9542;DHT22;4809;48.224;8.572;2023-05-14T00:19:46;9.70;99.90
9542;DHT22;4809;48.224;8.572;2023-05-14T00:22:12;9.70;99.90
9542;DHT22;4809;48.224;8.572;2023-05-14T00:24:37;9.70;99.90
9542;DHT22;4809;48.224;8.572;2023-05-14T00:27:03;9.70;99.90
9542;DHT22;4809;48.224;8.572;2023-05-14T00:29:29;9.70;99.90
9542;DHT22;4809;48.224;8.572;2023-05-14T00:31:54;9.70;99.90
9542;DHT22;4809;48.224;8.572;2023-05-14T00:34:20;9.70;99.90
9542;DHT22;4809;48.224;8.572;2023-05-14T00:36:46;9.70;99.90
9542;DHT22;4809;48.224;8.572;2023-05-14T00:39:12;9.70;99.90
9542;DHT22;4809;48.224;8.572;2023-05-14T00:41:38;9.60;99.90
9542;DHT22;4809;48.224;8.572;2023-05-14T00:44:04;9.60;99.90
9542;DHT22;4809;48.224;8.572;2023-05-14T00:46:30;9.60;99.90
9542;DHT22;4809;48.224;8.572;2023-05-14T00:48:57;9.50;99.90
9542;DHT22;4809;48.224;8.572;2023-05-14T00:51:23;9.60;99.90
9542;DHT22;4809;48.224;8.572;2023-05-14T00:53:49;9.50;99.90
9542;DHT22;4809;48.224;8.572;2023-05-14T00:56:15;9.60;99.90
9542;DHT22;4809;48.224;8.572;2023-05-14T00:58:41;9.50;99.90
9542;DHT22;4809;48.224;8.572;2023-05-14T01:01:08;9.60;99.90
9542;DHT22;4809;48.224;8.572;2023-05-14T01:03:34;9.50;99.90
9542;DHT22;4809;48.224;8.572;2023-05-14T01:09:09;9.60;99.90
9542;DHT22;4809;48.224;8.572;2023-05-14T01:12:24;9.60;99.90
9542;DHT22;4809;48.224;8.572;2023-05-14T01:15:11;9.60;99.90
9542;DHT22;4809;48.224;8.572;2023-05-14T01:17:47;9.60;99.90
9542;DHT22;4809;48.224;8.572;2023-05-14T01:20:15;9.60;99.90
9542;DHT22;4809;48.224;8.572;2023-05-14T01:22:40;9.60;99.90
9542;DHT22;4809;48.224;8.572;2023-05-14T01:25:07;9.60;99.90
9542;DHT22;4809;48.224;8.572;2023-05-14T01:27:53;9.60;99.90
9542;DHT22;4809;48.224;8.572;2023-05-14T01:30:24;9.70;99.90
9542;DHT22;4809;48.224;8.572;2023-05-14T01:32:55;9.70;99.90
9542;DHT22;4809;48.224;8.572;2023-05-14T01:35:25;9.70;99.90
9542;DHT22;4809;48.224;8.572;2023-05-14T01:37:54;9.70;99.90
9542;DHT22;4809;48.224;8.572;2023-05-14T01:40:21;9.70;99.90
9542;DHT22;4809;48.224;8.572;2023-05-14T01:42:49;9.70;99.90
9542;DHT22;4809;48.224;8.572;2023-05-14T01:45:16;9.70;99.90
9542;DHT22;4809;48.224;8.572;2023-05-14T01:47:42;9.60;99.90
9542;DHT22;4809;48.224;8.572;2023-05-14T01:50:08;9.60;99.90
9542;DHT22;4809;48.224;8.572;2023-05-14T01:52:34;9.50;99.90
9542;DHT22;4809;48.224;8.572;2023-05-14T01:55:00;9.50;99.90
9542;DHT22;4809;48.224;8.572;2023-05-14T01:57:25;9.50;99.90
9542;DHT22;4809;48.224;8.572;2023-05-14T01:59:51;9.50;99.90
9542;DHT22;4809;48.224;8.572;2023-05-14T02:02:17;9.60;99.90
9542;DHT22;4809;48.224;8.572;2023-05-14T02:04:42;9.60;99.90
9542;DHT22;4809;48.224;8.572;2023-05-14T02:07:08;9.60;99.90
9542;DHT22;4809;48.224;8.572;2023-05-14T02:09:34;9.60;99.90
9542;DHT22;4809;48.224;8.572;2023-05-14T02:11:59;9.70;99.90
9542;DHT22;4809;48.224;8.572;2023-05-14T02:14:25;9.70;99.90
9542;DHT22;4809;48.224;8.572;2023-05-14T02:16:50;9.70;99.90
9542;DHT22;4809;48.224;8.572;2023-05-14T02:19:16;9.70;99.90
9542;DHT22;4809;48.224;8.572;2023-05-14T02:21:42;9.80;99.90
9542;DHT22;4809;48.224;8.572;2023-05-14T02:24:07;9.80;99.90
9542;DHT22;4809;48.224;8.572;2023-05-14T02:26:33;9.80;99.90
9542;DHT22;4809;48.224;8.572;2023-05-14T02:28:58;9.70;99.90
9542;DHT22;4809;48.224;8.572;2023-05-14T02:31:24;9.70;99.90
9542;DHT22;4809;48.224;8.572;2023-05-14T02:33:50;9.70;99.90
9542;DHT22;4809;48.224;8.572;2023-05-14T02:36:15;9.80;99.90
9542;DHT22;4809;48.224;8.572;2023-05-14T02:38:41;9.80;99.90
9542;DHT22;4809;48.224;8.572;2023-05-14T02:41:07;9.80;99.90
9542;DHT22;4809;48.224;8.572;2023-05-14T02:43:32;9.70;99.90
9542;DHT22;4809;48.224;8.572;2023-05-14T02:45:58;9.80;99.90
9542;DHT22;4809;48.224;8.572;2023-05-14T02:48:23;9.80;99.90
9542;DHT22;4809;48.224;8.572;2023-05-14T02:50:49;9.80;99.90
9542;DHT22;4809;48.224;8.572;2023-05-14T02:53:16;9.80;99.90
9542;DHT22;4809;48.224;8.572;2023-05-14T02:55:42;9.70;99.90
9542;DHT22;4809;48.224;8.572;2023-05-14T02:58:07;9.70;99.90
9542;DHT22;4809;48.224;8.572;2023-05-14T03:00:34;9.70;99.90
9542;DHT22;4809;48.224;8.572;2023-05-14T03:03:00;9.70;99.90
9542;DHT22;4809;48.224;8.572;2023-05-14T03:05:26;9.70;99.90
9542;DHT22;4809;48.224;8.572;2023-05-14T03:07:52;9.70;99.90
9542;DHT22;4809;48.224;8.572;2023-05-14T03:10:18;9.70;99.90
9542;DHT22;4809;48.224;8.572;2023-05-14T03:12:44;9.70;99.90
9542;DHT22;4809;48.224;8.572;2023-05-14T03:15:10;9.70;99.90
9542;DHT22;4809;48.224;8.572;2023-05-14T03:17:36;9.70;99.90
9542;DHT22;4809;48.224;8.572;2023-05-14T03:20:02;9.70;99.90
9542;DHT22;4809;48.224;8.572;2023-05-14T03:22:28;9.70;99.90
9542;DHT22;4809;48.224;8.572;2023-05-14T03:24:53;9.80;99.90
9542;DHT22;4809;48.224;8.572;2023-05-14T03:27:19;9.70;99.90
9542;DHT22;4809;48.224;8.572;2023-05-14T03:29:45;9.70;99.90
9542;DHT22;4809;48.224;8.572;2023-05-14T03:32:10;9.80;99.90
9542;DHT22;4809;48.224;8.572;2023-05-14T03:34:36;9.80;99.90
9542;DHT22;4809;48.224;8.572;2023-05-14T03:37:02;9.70;99.90
9542;DHT22;4809;48.224;8.572;2023-05-14T03:39:28;9.70;99.90
9542;DHT22;4809;48.224;8.572;2023-05-14T03:41:53;9.70;99.90
9542;DHT22;4809;48.224;8.572;2023-05-14T03:44:21;9.70;99.90
9542;DHT22;4809;48.224;8.572;2023-05-14T03:46:47;9.70;99.90
9542;DHT22;4809;48.224;8.572;2023-05-14T03:49:12;9.70;99.90
9542;DHT22;4809;48.224;8.572;2023-05-14T03:51:38;9.70;99.90
9542;DHT22;4809;48.224;8.572;2023-05-14T03:54:05;9.70;99.90
9542;DHT22;4809;48.224;8.572;2023-05-14T03:56:30;9.70;99.90
9542;DHT22;4809;48.224;8.572;2023-05-14T03:58:56;9.70;99.90
9542;DHT22;4809;48.224;8.572;2023-05-14T04:01:22;9.60;99.90
9542;DHT22;4809;48.224;8.572;2023-05-14T04:03:47;9.60;99.90
9542;DHT22;4809;48.224;8.572;2023-05-14T04:06:13;9.60;99.90
9542;DHT22;4809;48.224;8.572;2023-05-14T04:08:39;9.60;99.90
9542;DHT22;4809;48.224;8.572;2023-05-14T04:11:04;9.60;99.90
9542;DHT22;4809;48.224;8.572;2023-05-14T04:13:30;9.70;99.90
9542;DHT22;4809;48.224;8.572;2023-05-14T04:15:56;9.60;99.90
9542;DHT22;4809;48.224;8.572;2023-05-14T04:18:21;9.70;99.90
9542;DHT22;4809;48.224;8.572;2023-05-14T04:20:47;9.70;99.90
9542;DHT22;4809;48.224;8.572;2023-05-14T04:23:12;9.70;99.90
9542;DHT22;4809;48.224;8.572;2023-05-14T04:25:38;9.70;99.90
9542;DHT22;4809;48.224;8.572;2023-05-14T04:28:04;9.70;99.90
9542;DHT22;4809;48.224;8.572;2023-05-14T04:30:30;9.70;99.90
9542;DHT22;4809;48.224;8.572;2023-05-14T04:32:56;9.70;99.90
9542;DHT22;4809;48.224;8.572;2023-05-14T04:35:21;9.70;99.90
9542;DHT22;4809;48.224;8.572;2023-05-14T04:37:47;9.70;99.90
9542;DHT22;4809;48.224;8.572;2023-05-14T04:40:13;9.80;99.90
9542;DHT22;4809;48.224;8.572;2023-05-14T04:42:41;9.80;99.90
9542;DHT22;4809;48.224;8.572;2023-05-14T04:45:08;9.90;99.90
9542;DHT22;4809;48.224;8.572;2023-05-14T04:47:34;9.90;99.90
9542;DHT22;4809;48.224;8.572;2023-05-14T04:50:00;9.80;99.90
9542;DHT22;4809;48.224;8.572;2023-05-14T04:52:26;9.90;99.90
9542;DHT22;4809;48.224;8.572;2023-05-14T04:54:51;9.90;99.90
9542;DHT22;4809;48.224;8.572;2023-05-14T04:57:17;10.00;99.90
9542;DHT22;4809;48.224;8.572;2023-05-14T04:59:43;10.00;99.90
9542;DHT22;4809;48.224;8.572;2023-05-14T05:02:09;10.10;99.90
9542;DHT22;4809;48.224;8.572;2023-05-14T05:04:34;10.10;99.90
9542;DHT22;4809;48.224;8.572;2023-05-14T05:07:01;10.10;99.90
9542;DHT22;4809;48.224;8.572;2023-05-14T05:09:26;10.10;99.90
9542;DHT22;4809;48.224;8.572;2023-05-14T05:11:52;10.10;99.90
9542;DHT22;4809;48.224;8.572;2023-05-14T05:14:17;10.10;99.90
9542;DHT22;4809;48.224;8.572;2023-05-14T05:16:43;10.10;99.90
9542;DHT22;4809;48.224;8.572;2023-05-14T05:19:09;10.20;99.90
9542;DHT22;4809;48.224;8.572;2023-05-14T05:21:35;10.20;99.90
9542;DHT22;4809;48.224;8.572;2023-05-14T05:24:00;10.20;99.90
9542;DHT22;4809;48.224;8.572;2023-05-14T05:26:26;10.20;99.90
9542;DHT22;4809;48.224;8.572;2023-05-14T05:28:52;10.30;99.90
9542;DHT22;4809;48.224;8.572;2023-05-14T05:31:18;10.30;99.90
9542;DHT22;4809;48.224;8.572;2023-05-14T05:33:44;10.40;99.90
9542;DHT22;4809;48.224;8.572;2023-05-14T05:36:09;10.40;99.90
9542;DHT22;4809;48.224;8.572;2023-05-14T05:38:35;10.40;99.90
9542;DHT22;4809;48.224;8.572;2023-05-14T05:41:01;10.40;99.90
9542;DHT22;4809;48.224;8.572;2023-05-14T05:43:26;10.50;99.90
9542;DHT22;4809;48.224;8.572;2023-05-14T05:45:53;10.50;99.90
9542;DHT22;4809;48.224;8.572;2023-05-14T05:48:19;10.60;99.90
9542;DHT22;4809;48.224;8.572;2023-05-14T05:50:46;10.60;99.90
9542;DHT22;4809;48.224;8.572;2023-05-14T05:53:13;10.80;99.90
9542;DHT22;4809;48.224;8.572;2023-05-14T05:55:41;10.80;99.90
9542;DHT22;4809;48.224;8.572;2023-05-14T05:58:07;10.90;99.90
9542;DHT22;4809;48.224;8.572;2023-05-14T06:00:32;11.10;99.90
9542;DHT22;4809;48.224;8.572;2023-05-14T06:02:58;11.30;99.90
9542;DHT22;4809;48.224;8.572;2023-05-14T06:05:24;11.40;99.90
9542;DHT22;4809;48.224;8.572;2023-05-14T06:07:52;11.50;99.90
9542;DHT22;4809;48.224;8.572;2023-05-14T06:10:18;11.50;99.90
9542;DHT22;4809;48.224;8.572;2023-05-14T06:12:44;11.60;99.90
9542;DHT22;4809;48.224;8.572;2023-05-14T06:15:10;11.60;99.90
9542;DHT22;4809;48.224;8.572;2023-05-14T06:17:37;11.60;99.90
9542;DHT22;4809;48.224;8.572;2023-05-14T06:20:03;11.60;99.90
9542;DHT22;4809;48.224;8.572;2023-05-14T06:22:33;11.60;99.90
9542;DHT22;4809;48.224;8.572;2023-05-14T06:24:58;11.60;99.90
9542;DHT22;4809;48.224;8.572;2023-05-14T06:27:24;11.80;99.90
9542;DHT22;4809;48.224;8.572;2023-05-14T06:29:50;11.80;99.90
9542;DHT22;4809;48.224;8.572;2023-05-14T06:32:15;11.90;99.90
9542;DHT22;4809;48.224;8.572;2023-05-14T06:34:42;12.00;99.90
9542;DHT22;4809;48.224;8.572;2023-05-14T06:37:08;12.10;99.90
9542;DHT22;4809;48.224;8.572;2023-05-14T06:39:37;12.20;99.90
9542;DHT22;4809;48.224;8.572;2023-05-14T06:42:04;12.30;99.90
9542;DHT22;4809;48.224;8.572;2023-05-14T06:44:30;12.40;99.90
9542;DHT22;4809;48.224;8.572;2023-05-14T06:46:56;12.50;99.90
9542;DHT22;4809;48.224;8.572;2023-05-14T06:49:22;12.60;99.90
9542;DHT22;4809;48.224;8.572;2023-05-14T06:51:47;12.70;99.90
9542;DHT22;4809;48.224;8.572;2023-05-14T06:54:13;12.70;99.90
9542;DHT22;4809;48.224;8.572;2023-05-14T06:56:39;12.90;99.90
9542;DHT22;4809;48.224;8.572;2023-05-14T06:59:04;13.00;99.90
9542;DHT22;4809;48.224;8.572;2023-05-14T07:01:30;13.10;99.90
9542;DHT22;4809;48.224;8.572;2023-05-14T07:03:56;13.30;99.90
9542;DHT22;4809;48.224;8.572;2023-05-14T07:06:22;13.50;99.90
9542;DHT22;4809;48.224;8.572;2023-05-14T07:08:48;13.60;99.90
9542;DHT22;4809;48.224;8.572;2023-05-14T07:11:14;13.60;99.90
9542;DHT22;4809;48.224;8.572;2023-05-14T07:13:40;13.60;99.90
9542;DHT22;4809;48.224;8.572;2023-05-14T07:16:07;13.80;99.90
9542;DHT22;4809;48.224;8.572;2023-05-14T07:18:34;13.90;99.90
9542;DHT22;4809;48.224;8.572;2023-05-14T07:21:00;14.10;99.90
9542;DHT22;4809;48.224;8.572;2023-05-14T07:23:25;14.30;99.90
9542;DHT22;4809;48.224;8.572;2023-05-14T07:25:51;14.50;99.90
9542;DHT22;4809;48.224;8.572;2023-05-14T07:28:17;14.70;99.90
9542;DHT22;4809;48.224;8.572;2023-05-14T07:30:42;14.80;99.90
9542;DHT22;4809;48.224;8.572;2023-05-14T07:33:08;14.90;99.90
9542;DHT22;4809;48.224;8.572;2023-05-14T07:35:34;14.90;99.90
9542;DHT22;4809;48.224;8.572;2023-05-14T07:37:59;14.60;99.90
9542;DHT22;4809;48.224;8.572;2023-05-14T07:40:26;14.40;99.90
9542;DHT22;4809;48.224;8.572;2023-05-14T07:42:51;14.30;99.90
9542;DHT22;4809;48.224;8.572;2023-05-14T07:45:17;14.20;99.90
9542;DHT22;4809;48.224;8.572;2023-05-14T07:47:43;13.90;99.90
9542;DHT22;4809;48.224;8.572;2023-05-14T07:50:09;13.80;99.90
9542;DHT22;4809;48.224;8.572;2023-05-14T07:52:35;13.60;99.90
9542;DHT22;4809;48.224;8.572;2023-05-14T07:55:02;13.50;99.90
9542;DHT22;4809;48.224;8.572;2023-05-14T07:57:28;13.30;99.90
9542;DHT22;4809;48.224;8.572;2023-05-14T07:59:53;13.20;99.90
9542;DHT22;4809;48.224;8.572;2023-05-14T08:02:19;13.20;99.90
9542;DHT22;4809;48.224;8.572;2023-05-14T08:04:45;13.10;99.90
9542;DHT22;4809;48.224;8.572;2023-05-14T08:07:11;13.00;99.90
9542;DHT22;4809;48.224;8.572;2023-05-14T08:09:37;13.00;99.90
9542;DHT22;4809;48.224;8.572;2023-05-14T08:12:03;13.00;99.90
9542;DHT22;4809;48.224;8.572;2023-05-14T08:14:28;13.00;99.90
9542;DHT22;4809;48.224;8.572;2023-05-14T08:16:54;13.00;99.90
9542;DHT22;4809;48.224;8.572;2023-05-14T08:19:20;13.00;99.90
9542;DHT22;4809;48.224;8.572;2023-05-14T08:21:45;13.10;99.90
9542;DHT22;4809;48.224;8.572;2023-05-14T08:24:11;13.10;99.90
9542;DHT22;4809;48.224;8.572;2023-05-14T08:26:37;13.10;99.90
9542;DHT22;4809;48.224;8.572;2023-05-14T08:29:05;13.10;99.90
9542;DHT22;4809;48.224;8.572;2023-05-14T08:31:30;13.20;99.90
9542;DHT22;4809;48.224;8.572;2023-05-14T08:33:56;13.20;99.90
9542;DHT22;4809;48.224;8.572;2023-05-14T08:36:22;13.30;99.90
9542;DHT22;4809;48.224;8.572;2023-05-14T08:38:47;13.30;99.90
9542;DHT22;4809;48.224;8.572;2023-05-14T08:41:15;13.30;99.90
9542;DHT22;4809;48.224;8.572;2023-05-14T08:44:04;13.40;99.90
9542;DHT22;4809;48.224;8.572;2023-05-14T08:46:31;13.50;99.90
9542;DHT22;4809;48.224;8.572;2023-05-14T08:51:43;13.80;99.90
9542;DHT22;4809;48.224;8.572;2023-05-14T08:54:18;14.00;99.90
9542;DHT22;4809;48.224;8.572;2023-05-14T08:56:47;14.20;99.90
9542;DHT22;4809;48.224;8.572;2023-05-14T08:59:13;14.30;99.90
9542;DHT22;4809;48.224;8.572;2023-05-14T09:01:43;14.40;99.90
9542;DHT22;4809;48.224;8.572;2023-05-14T09:04:10;14.40;99.90
9542;DHT22;4809;48.224;8.572;2023-05-14T09:06:37;14.40;99.90
9542;DHT22;4809;48.224;8.572;2023-05-14T09:09:03;14.40;99.90
9542;DHT22;4809;48.224;8.572;2023-05-14T09:11:29;14.30;99.90
9542;DHT22;4809;48.224;8.572;2023-05-14T09:13:55;14.20;99.90
9542;DHT22;4809;48.224;8.572;2023-05-14T09:16:21;14.20;99.90
9542;DHT22;4809;48.224;8.572;2023-05-14T09:18:48;14.40;99.90
9542;DHT22;4809;48.224;8.572;2023-05-14T09:21:15;14.60;99.90
9542;DHT22;4809;48.224;8.572;2023-05-14T09:23:42;14.80;99.90
9542;DHT22;4809;48.224;8.572;2023-05-14T09:26:09;15.00;99.90
9542;DHT22;4809;48.224;8.572;2023-05-14T09:28:35;15.10;99.90
9542;DHT22;4809;48.224;8.572;2023-05-14T09:31:03;15.10;99.90
9542;DHT22;4809;48.224;8.572;2023-05-14T09:33:29;15.10;99.90
9542;DHT22;4809;48.224;8.572;2023-05-14T09:35:58;15.10;99.90
9542;DHT22;4809;48.224;8.572;2023-05-14T09:38:32;14.90;99.90
9542;DHT22;4809;48.224;8.572;2023-05-14T09:40:59;14.60;99.90
9542;DHT22;4809;48.224;8.572;2023-05-14T09:43:25;14.50;99.90
9542;DHT22;4809;48.224;8.572;2023-05-14T09:45:51;14.30;99.90
9542;DHT22;4809;48.224;8.572;2023-05-14T09:48:17;14.00;99.90
9542;DHT22;4809;48.224;8.572;2023-05-14T09:50:45;13.90;99.90
9542;DHT22;4809;48.224;8.572;2023-05-14T09:53:12;14.00;99.90
9542;DHT22;4809;48.224;8.572;2023-05-14T09:55:38;14.10;99.90
9542;DHT22;4809;48.224;8.572;2023-05-14T09:58:04;14.30;99.90
9542;DHT22;4809;48.224;8.572;2023-05-14T10:00:34;14.40;99.90
9542;DHT22;4809;48.224;8.572;2023-05-14T10:03:04;14.70;99.90
9542;DHT22;4809;48.224;8.572;2023-05-14T10:05:34;14.90;99.90
9542;DHT22;4809;48.224;8.572;2023-05-14T10:08:04;15.30;99.90
9542;DHT22;4809;48.224;8.572;2023-05-14T10:10:34;15.60;99.90
9542;DHT22;4809;48.224;8.572;2023-05-14T10:13:12;15.80;99.90
9542;DHT22;4809;48.224;8.572;2023-05-14T10:15:42;15.80;99.90
9542;DHT22;4809;48.224;8.572;2023-05-14T10:18:16;15.80;99.90
9542;DHT22;4809;48.224;8.572;2023-05-14T10:20:45;15.80;99.90
9542;DHT22;4809;48.224;8.572;2023-05-14T10:23:12;15.80;99.90
9542;DHT22;4809;48.224;8.572;2023-05-14T10:25:39;15.90;99.90
9542;DHT22;4809;48.224;8.572;2023-05-14T10:28:05;16.00;99.90
9542;DHT22;4809;48.224;8.572;2023-05-14T10:30:31;16.10;99.90
9542;DHT22;4809;48.224;8.572;2023-05-14T10:33:08;16.30;99.90
9542;DHT22;4809;48.224;8.572;2023-05-14T10:36:00;16.70;99.90
9542;DHT22;4809;48.224;8.572;2023-05-14T10:38:32;17.30;99.90
9542;DHT22;4809;48.224;8.572;2023-05-14T10:43:27;17.80;99.90
9542;DHT22;4809;48.224;8.572;2023-05-14T10:45:57;17.90;99.90
9542;DHT22;4809;48.224;8.572;2023-05-14T10:48:23;18.00;99.90
9542;DHT22;4809;48.224;8.572;2023-05-14T10:50:50;17.90;99.90
9542;DHT22;4809;48.224;8.572;2023-05-14T10:53:16;17.90;99.90
9542;DHT22;4809;48.224;8.572;2023-05-14T10:55:43;17.80;99.90
9542;DHT22;4809;48.224;8.572;2023-05-14T10:58:15;17.60;99.90
9542;DHT22;4809;48.224;8.572;2023-05-14T11:00:46;17.30;99.90
9542;DHT22;4809;48.224;8.572;2023-05-14T11:03:14;17.20;99.90
9542;DHT22;4809;48.224;8.572;2023-05-14T11:05:40;17.50;99.90
9542;DHT22;4809;48.224;8.572;2023-05-14T11:08:07;17.60;99.90
9542;DHT22;4809;48.224;8.572;2023-05-14T11:10:34;17.80;99.90
9542;DHT22;4809;48.224;8.572;2023-05-14T11:13:00;18.20;99.90
9542;DHT22;4809;48.224;8.572;2023-05-14T11:15:26;18.20;99.90
9542;DHT22;4809;48.224;8.572;2023-05-14T11:17:53;18.10;99.90
9542;DHT22;4809;48.224;8.572;2023-05-14T11:20:19;18.10;99.90
9542;DHT22;4809;48.224;8.572;2023-05-14T11:22:46;18.20;99.90
9542;DHT22;4809;48.224;8.572;2023-05-14T11:25:13;18.20;99.90
9542;DHT22;4809;48.224;8.572;2023-05-14T11:27:39;18.30;99.90
9542;DHT22;4809;48.224;8.572;2023-05-14T11:30:19;18.30;99.90
9542;DHT22;4809;48.224;8.572;2023-05-14T11:32:46;18.10;99.90
9542;DHT22;4809;48.224;8.572;2023-05-14T11:35:13;18.10;99.90
9542;DHT22;4809;48.224;8.572;2023-05-14T11:37:39;18.10;99.90
9542;DHT22;4809;48.224;8.572;2023-05-14T11:40:13;18.20;99.90
9542;DHT22;4809;48.224;8.572;2023-05-14T11:42:40;18.40;99.90
9542;DHT22;4809;48.224;8.572;2023-05-14T11:45:09;18.70;99.90
9542;DHT22;4809;48.224;8.572;2023-05-14T11:47:36;19.00;99.90
9542;DHT22;4809;48.224;8.572;2023-05-14T11:50:02;19.10;99.90
9542;DHT22;4809;48.224;8.572;2023-05-14T11:52:28;19.00;99.90
9542;DHT22;4809;48.224;8.572;2023-05-14T11:54:53;18.80;99.90
9542;DHT22;4809;48.224;8.572;2023-05-14T11:57:20;18.50;99.90
9542;DHT22;4809;48.224;8.572;2023-05-14T11:59:54;18.20;99.90
9542;DHT22;4809;48.224;8.572;2023-05-14T12:02:26;17.90;99.90
9542;DHT22;4809;48.224;8.572;2023-05-14T12:04:53;17.60;99.90
9542;DHT22;4809;48.224;8.572;2023-05-14T12:07:19;17.60;99.90
9542;DHT22;4809;48.224;8.572;2023-05-14T12:09:46;17.70;99.90
9542;DHT22;4809;48.224;8.572;2023-05-14T12:12:21;17.80;99.90
9542;DHT22;4809;48.224;8.572;2023-05-14T12:14:48;18.00;99.90
9542;DHT22;4809;48.224;8.572;2023-05-14T12:17:21;18.40;99.90
9542;DHT22;4809;48.224;8.572;2023-05-14T12:19:48;18.80;99.90
9542;DHT22;4809;48.224;8.572;2023-05-14T12:22:20;19.00;99.90
9542;DHT22;4809;48.224;8.572;2023-05-14T12:24:54;19.00;99.90
9542;DHT22;4809;48.224;8.572;2023-05-14T12:27:24;19.00;99.90
9542;DHT22;4809;48.224;8.572;2023-05-14T12:30:01;19.10;99.90
9542;DHT22;4809;48.224;8.572;2023-05-14T12:32:31;19.20;99.90
9542;DHT22;4809;48.224;8.572;2023-05-14T12:34:57;19.20;99.90
9542;DHT22;4809;48.224;8.572;2023-05-14T12:37:23;19.10;99.90
9542;DHT22;4809;48.224;8.572;2023-05-14T12:39:49;18.90;99.90
9542;DHT22;4809;48.224;8.572;2023-05-14T12:42:14;18.70;99.90
9542;DHT22;4809;48.224;8.572;2023-05-14T12:44:41;18.40;99.90
9542;DHT22;4809;48.224;8.572;2023-05-14T12:47:06;18.20;99.90
9542;DHT22;4809;48.224;8.572;2023-05-14T12:49:35;18.10;99.90
9542;DHT22;4809;48.224;8.572;2023-05-14T12:52:01;18.20;99.90
9542;DHT22;4809;48.224;8.572;2023-05-14T12:54:27;18.20;99.90
9542;DHT22;4809;48.224;8.572;2023-05-14T12:56:53;18.20;99.90
9542;DHT22;4809;48.224;8.572;2023-05-14T12:59:19;18.50;99.90
9542;DHT22;4809;48.224;8.572;2023-05-14T13:01:44;18.90;99.90
9542;DHT22;4809;48.224;8.572;2023-05-14T13:04:10;19.50;99.90
9542;DHT22;4809;48.224;8.572;2023-05-14T13:06:39;20.40;99.90
9542;DHT22;4809;48.224;8.572;2023-05-14T13:09:05;20.90;99.90
9542;DHT22;4809;48.224;8.572;2023-05-14T13:11:31;20.60;99.90
9542;DHT22;4809;48.224;8.572;2023-05-14T13:13:57;20.00;99.90
9542;DHT22;4809;48.224;8.572;2023-05-14T13:16:27;19.10;99.90
9542;DHT22;4809;48.224;8.572;2023-05-14T13:18:53;18.50;99.90
9542;DHT22;4809;48.224;8.572;2023-05-14T13:21:22;18.00;99.90
9542;DHT22;4809;48.224;8.572;2023-05-14T13:23:48;17.70;99.90
9542;DHT22;4809;48.224;8.572;2023-05-14T13:26:14;17.30;99.90
9542;DHT22;4809;48.224;8.572;2023-05-14T13:28:40;17.00;99.90
9542;DHT22;4809;48.224;8.572;2023-05-14T13:31:10;16.80;99.90
9542;DHT22;4809;48.224;8.572;2023-05-14T13:33:39;16.70;99.90
9542;DHT22;4809;48.224;8.572;2023-05-14T13:36:05;16.70;99.90
9542;DHT22;4809;48.224;8.572;2023-05-14T13:38:32;16.70;99.90
9542;DHT22;4809;48.224;8.572;2023-05-14T13:40:58;16.90;99.90
9542;DHT22;4809;48.224;8.572;2023-05-14T13:43:27;17.40;99.90
9542;DHT22;4809;48.224;8.572;2023-05-14T13:45:53;17.90;99.90
9542;DHT22;4809;48.224;8.572;2023-05-14T13:48:19;18.40;99.90
9542;DHT22;4809;48.224;8.572;2023-05-14T13:50:45;18.90;99.90
9542;DHT22;4809;48.224;8.572;2023-05-14T13:53:10;19.30;99.90
9542;DHT22;4809;48.224;8.572;2023-05-14T13:55:36;19.80;99.90
9542;DHT22;4809;48.224;8.572;2023-05-14T13:58:02;20.20;99.90
9542;DHT22;4809;48.224;8.572;2023-05-14T14:00:28;20.60;99.90
9542;DHT22;4809;48.224;8.572;2023-05-14T14:02:53;21.00;99.90
9542;DHT22;4809;48.224;8.572;2023-05-14T14:05:19;21.20;99.90
9542;DHT22;4809;48.224;8.572;2023-05-14T14:07:45;21.50;99.90
9542;DHT22;4809;48.224;8.572;2023-05-14T14:10:11;21.40;99.90
9542;DHT22;4809;48.224;8.572;2023-05-14T14:12:37;21.20;99.90
9542;DHT22;4809;48.224;8.572;2023-05-14T14:15:04;21.00;99.90
9542;DHT22;4809;48.224;8.572;2023-05-14T14:17:30;20.50;99.90
9542;DHT22;4809;48.224;8.572;2023-05-14T14:19:55;20.50;99.90
9542;DHT22;4809;48.224;8.572;2023-05-14T14:22:21;20.60;99.90
9542;DHT22;4809;48.224;8.572;2023-05-14T14:24:47;20.70;99.90
9542;DHT22;4809;48.224;8.572;2023-05-14T14:27:12;20.10;99.90
9542;DHT22;4809;48.224;8.572;2023-05-14T14:29:38;19.60;99.90
9542;DHT22;4809;48.224;8.572;2023-05-14T14:32:04;19.40;99.90
9542;DHT22;4809;48.224;8.572;2023-05-14T14:34:32;19.10;99.90
9542;DHT22;4809;48.224;8.572;2023-05-14T14:36:58;18.50;99.90
9542;DHT22;4809;48.224;8.572;2023-05-14T14:39:24;17.50;99.90
9542;DHT22;4809;48.224;8.572;2023-05-14T14:41:50;16.80;99.90
9542;DHT22;4809;48.224;8.572;2023-05-14T14:44:15;15.90;99.90
9542;DHT22;4809;48.224;8.572;2023-05-14T14:46:41;15.40;99.90
9542;DHT22;4809;48.224;8.572;2023-05-14T14:49:07;14.80;99.90
9542;DHT22;4809;48.224;8.572;2023-05-14T14:51:33;14.30;99.90
9542;DHT22;4809;48.224;8.572;2023-05-14T14:53:58;13.90;99.90
9542;DHT22;4809;48.224;8.572;2023-05-14T14:56:25;13.60;99.90
9542;DHT22;4809;48.224;8.572;2023-05-14T14:58:51;13.50;99.90
9542;DHT22;4809;48.224;8.572;2023-05-14T15:01:17;13.50;99.90
9542;DHT22;4809;48.224;8.572;2023-05-14T15:03:42;13.40;99.90
9542;DHT22;4809;48.224;8.572;2023-05-14T15:06:10;13.50;99.90
9542;DHT22;4809;48.224;8.572;2023-05-14T15:08:36;13.60;99.90
9542;DHT22;4809;48.224;8.572;2023-05-14T15:11:02;13.60;99.90
9542;DHT22;4809;48.224;8.572;2023-05-14T15:13:27;13.60;99.90
9542;DHT22;4809;48.224;8.572;2023-05-14T15:15:53;13.60;99.90
9542;DHT22;4809;48.224;8.572;2023-05-14T15:18:19;13.60;99.90
9542;DHT22;4809;48.224;8.572;2023-05-14T15:20:45;13.60;99.90
9542;DHT22;4809;48.224;8.572;2023-05-14T15:23:10;13.60;99.90
9542;DHT22;4809;48.224;8.572;2023-05-14T15:25:36;13.60;99.90
9542;DHT22;4809;48.224;8.572;2023-05-14T15:28:04;13.50;99.90
9542;DHT22;4809;48.224;8.572;2023-05-14T15:30:30;13.60;99.90
9542;DHT22;4809;48.224;8.572;2023-05-14T15:32:56;13.70;99.90
9542;DHT22;4809;48.224;8.572;2023-05-14T15:35:22;13.60;99.90
9542;DHT22;4809;48.224;8.572;2023-05-14T15:37:47;13.40;99.90
9542;DHT22;4809;48.224;8.572;2023-05-14T15:40:13;13.30;99.90
9542;DHT22;4809;48.224;8.572;2023-05-14T15:42:41;13.20;99.90
9542;DHT22;4809;48.224;8.572;2023-05-14T15:45:07;13.10;99.90
9542;DHT22;4809;48.224;8.572;2023-05-14T15:47:33;13.00;99.90
9542;DHT22;4809;48.224;8.572;2023-05-14T15:49:59;13.10;99.90
9542;DHT22;4809;48.224;8.572;2023-05-14T15:52:25;13.00;99.90
9542;DHT22;4809;48.224;8.572;2023-05-14T15:54:51;13.00;99.90
9542;DHT22;4809;48.224;8.572;2023-05-14T15:57:17;13.00;99.90
9542;DHT22;4809;48.224;8.572;2023-05-14T15:59:42;12.90;99.90
9542;DHT22;4809;48.224;8.572;2023-05-14T16:02:12;12.80;99.90
9542;DHT22;4809;48.224;8.572;2023-05-14T16:04:37;12.80;99.90
9542;DHT22;4809;48.224;8.572;2023-05-14T16:07:05;12.80;99.90
9542;DHT22;4809;48.224;8.572;2023-05-14T16:09:31;12.80;99.90
9542;DHT22;4809;48.224;8.572;2023-05-14T16:11:57;12.90;99.90